createdAt,value
2023-04-30T00:01:03.012Z,14.84
2023-04-30T00:03:29.945Z,14.82
2023-04-30T00:05:57.251Z,14.81
2023-04-30T00:08:24.156Z,14.82
2023-04-30T00:10:51.825Z,14.78
2023-04-30T00:13:19.125Z,14.76
2023-04-30T00:15:45.978Z,14.74
2023-04-30T00:18:12.770Z,14.74
2023-04-30T00:20:39.502Z,14.75
2023-04-30T00:23:06.229Z,14.76
2023-04-30T00:25:32.914Z,14.76
2023-04-30T00:27:59.561Z,14.74
2023-04-30T00:30:26.423Z,14.72
2023-04-30T00:32:53.279Z,14.70
2023-04-30T00:35:20.058Z,14.65
2023-04-30T00:37:47.691Z,14.61
2023-04-30T00:40:15.036Z,14.59
2023-04-30T00:42:41.767Z,14.54
2023-04-30T00:45:08.992Z,14.52
2023-04-30T00:47:35.781Z,14.50
2023-04-30T00:50:02.645Z,14.50
2023-04-30T00:52:29.719Z,14.51
2023-04-30T00:54:56.592Z,14.49
2023-04-30T00:57:23.648Z,14.48
2023-04-30T00:59:50.875Z,14.47
2023-04-30T01:02:18.842Z,14.46
2023-04-30T01:04:47.039Z,14.43
2023-04-30T01:07:13.916Z,14.41
2023-04-30T01:09:40.998Z,14.36
2023-04-30T01:12:21.301Z,14.33
2023-04-30T01:14:47.955Z,14.32
2023-04-30T01:17:23.971Z,14.33
2023-04-30T01:19:50.794Z,14.31
2023-04-30T01:22:35.492Z,14.31
2023-04-30T01:25:30.052Z,14.31
2023-04-30T01:28:16.679Z,14.29
2023-04-30T01:30:47.423Z,14.28
2023-04-30T01:33:14.202Z,14.29
2023-04-30T01:35:58.706Z,14.32
2023-04-30T01:38:33.170Z,14.33
2023-04-30T01:41:15.144Z,14.34
2023-04-30T01:44:19.732Z,14.33
2023-04-30T01:46:56.098Z,14.33
2023-04-30T01:49:44.104Z,14.33
2023-04-30T01:52:39.760Z,14.32
2023-04-30T01:55:24.375Z,14.32
2023-04-30T01:58:02.806Z,14.31
2023-04-30T02:00:30.993Z,14.33
2023-04-30T02:02:58.583Z,14.34
2023-04-30T02:05:25.566Z,14.34
2023-04-30T02:07:54.155Z,14.32
2023-04-30T02:10:23.065Z,14.32
2023-04-30T02:12:49.990Z,14.34
2023-04-30T02:15:17.219Z,14.35
2023-04-30T02:17:44.120Z,14.36
2023-04-30T02:20:11.658Z,14.36
2023-04-30T02:22:38.428Z,14.34
2023-04-30T02:25:05.643Z,14.30
2023-04-30T02:27:33.522Z,14.27
2023-04-30T02:30:01.056Z,14.26
2023-04-30T02:32:27.816Z,14.30
2023-04-30T02:34:54.702Z,14.32
2023-04-30T02:37:21.334Z,14.27
2023-04-30T02:39:48.167Z,14.21
2023-04-30T02:42:15.328Z,14.16
2023-04-30T02:44:42.588Z,14.10
2023-04-30T02:47:09.319Z,14.06
2023-04-30T02:49:36.460Z,14.01
2023-04-30T02:52:03.215Z,13.98
2023-04-30T02:54:29.970Z,13.97
2023-04-30T02:56:56.605Z,13.95
2023-04-30T02:59:23.345Z,13.95
2023-04-30T03:01:50.298Z,13.95
2023-04-30T03:04:17.131Z,13.97
2023-04-30T03:06:43.932Z,13.98
2023-04-30T03:09:11.088Z,14.01
2023-04-30T03:11:37.906Z,14.02
2023-04-30T03:14:07.749Z,14.03
2023-04-30T03:16:34.517Z,14.05
2023-04-30T03:19:01.504Z,14.03
2023-04-30T03:21:28.171Z,14.04
2023-04-30T03:23:54.890Z,14.04
2023-04-30T03:26:22.144Z,14.04
2023-04-30T03:28:49.405Z,14.01
2023-04-30T03:31:16.191Z,13.99
2023-04-30T03:33:43.230Z,13.97
2023-04-30T03:36:10.084Z,13.91
2023-04-30T03:38:36.707Z,13.87
2023-04-30T03:41:03.868Z,13.82
2023-04-30T03:43:30.735Z,13.73
2023-04-30T03:45:57.937Z,13.66
2023-04-30T03:48:25.500Z,13.62
2023-04-30T03:50:52.510Z,13.58
2023-04-30T03:53:19.216Z,13.60
2023-04-30T03:55:45.931Z,13.58
2023-04-30T03:58:13.217Z,13.57
2023-04-30T04:00:41.624Z,13.57
2023-04-30T04:03:08.659Z,13.55
2023-04-30T04:05:35.410Z,13.52
2023-04-30T04:08:02.138Z,13.50
2023-04-30T04:10:29.269Z,13.48
2023-04-30T04:12:55.994Z,13.47
2023-04-30T04:15:22.824Z,13.44
2023-04-30T04:17:49.573Z,13.44
2023-04-30T04:20:16.580Z,13.44
2023-04-30T04:22:44.097Z,13.44
2023-04-30T04:25:11.059Z,13.43
2023-04-30T04:27:38.800Z,13.43
2023-04-30T04:30:06.219Z,13.43
2023-04-30T04:32:33.093Z,13.42
2023-04-30T04:35:00.158Z,13.42
2023-04-30T04:37:27.036Z,13.46
2023-04-30T04:39:53.962Z,13.47
2023-04-30T04:42:21.288Z,13.51
2023-04-30T04:44:48.046Z,13.53
2023-04-30T04:47:20.000Z,13.55
2023-04-30T04:49:47.081Z,13.52
2023-04-30T04:52:15.567Z,13.49
2023-04-30T04:54:42.546Z,13.53
2023-04-30T04:57:09.233Z,13.55
2023-04-30T04:59:36.710Z,13.57
2023-04-30T05:02:03.474Z,13.60
2023-04-30T05:04:30.501Z,13.65
2023-04-30T05:06:57.268Z,13.69
2023-04-30T05:09:24.279Z,13.75
2023-04-30T05:11:51.059Z,13.79
2023-04-30T05:14:17.757Z,13.83
2023-04-30T05:16:45.295Z,13.83
2023-04-30T05:19:12.238Z,13.86
2023-04-30T05:21:42.116Z,13.88
2023-04-30T05:24:08.772Z,13.90
2023-04-30T05:26:35.803Z,13.94
2023-04-30T05:29:03.130Z,14.00
2023-04-30T05:31:29.972Z,14.08
2023-04-30T05:33:56.607Z,14.12
2023-04-30T05:36:23.489Z,14.20
2023-04-30T05:38:51.976Z,14.28
2023-04-30T05:41:18.951Z,14.36
2023-04-30T05:43:45.835Z,14.49
2023-04-30T05:46:12.663Z,14.56
2023-04-30T05:48:40.004Z,14.58
2023-04-30T05:51:07.182Z,14.64
2023-04-30T05:53:34.194Z,14.73
2023-04-30T05:56:01.179Z,14.82
2023-04-30T05:58:28.018Z,14.88
2023-04-30T06:00:54.855Z,14.91
2023-04-30T06:03:21.611Z,14.99
2023-04-30T06:05:48.439Z,15.04
2023-04-30T06:08:15.605Z,15.05
2023-04-30T06:10:42.463Z,15.10
2023-04-30T06:13:09.517Z,15.20
2023-04-30T06:15:36.279Z,15.32
2023-04-30T06:18:03.303Z,15.41
2023-04-30T06:20:30.110Z,15.46
2023-04-30T06:22:56.849Z,15.56
2023-04-30T06:25:23.686Z,15.67
2023-04-30T06:27:51.757Z,15.76
2023-04-30T06:30:18.414Z,15.87
2023-04-30T06:32:45.486Z,16.06
2023-04-30T06:35:12.175Z,16.29
2023-04-30T06:37:38.905Z,16.54
2023-04-30T06:40:06.609Z,16.74
2023-04-30T06:42:36.645Z,16.90
2023-04-30T06:45:04.203Z,16.92
2023-04-30T06:47:34.681Z,16.88
2023-04-30T06:50:01.975Z,16.94
2023-04-30T06:52:29.127Z,17.01
2023-04-30T06:54:55.894Z,17.04
2023-04-30T06:57:22.689Z,17.04
2023-04-30T06:59:49.364Z,16.96
2023-04-30T07:02:16.302Z,16.91
2023-04-30T07:04:43.055Z,16.88
2023-04-30T07:07:09.893Z,16.90
2023-04-30T07:09:37.068Z,16.99
2023-04-30T07:12:03.969Z,17.10
2023-04-30T07:14:30.829Z,17.29
2023-04-30T07:16:57.900Z,17.46
2023-04-30T07:19:26.985Z,17.65
2023-04-30T07:21:53.857Z,17.65
2023-04-30T07:24:20.696Z,17.79
2023-04-30T07:26:47.399Z,17.96
2023-04-30T07:29:14.035Z,18.18
2023-04-30T07:31:41.018Z,18.30
2023-04-30T07:34:08.823Z,18.60
2023-04-30T07:36:35.733Z,18.88
2023-04-30T07:39:02.580Z,19.27
2023-04-30T07:41:29.440Z,19.42
2023-04-30T07:43:56.289Z,19.11
2023-04-30T07:46:25.071Z,18.60
2023-04-30T07:48:51.733Z,18.10
2023-04-30T07:51:18.370Z,17.75
2023-04-30T07:53:45.590Z,17.54
2023-04-30T07:56:13.025Z,17.44
2023-04-30T07:58:39.739Z,17.39
2023-04-30T08:01:06.765Z,17.34
2023-04-30T08:03:33.682Z,17.32
2023-04-30T08:06:00.907Z,17.34
2023-04-30T08:08:27.693Z,17.43
2023-04-30T08:10:54.335Z,17.73
2023-04-30T08:13:21.014Z,19.30
2023-04-30T08:15:50.089Z,23.70
2023-04-30T08:18:16.781Z,27.91
2023-04-30T08:20:43.641Z,30.69
2023-04-30T08:23:10.810Z,32.60
2023-04-30T08:25:37.546Z,34.05
2023-04-30T08:28:04.358Z,35.31
2023-04-30T08:30:31.160Z,36.61
2023-04-30T08:32:58.019Z,37.29
2023-04-30T08:35:25.237Z,37.57
2023-04-30T08:37:51.917Z,38.01
2023-04-30T08:40:18.669Z,37.85
2023-04-30T08:42:50.433Z,35.80
2023-04-30T08:45:18.156Z,32.51
2023-04-30T08:47:45.481Z,30.50
2023-04-30T08:50:12.378Z,28.62
2023-04-30T08:52:40.235Z,26.93
2023-04-30T08:55:08.855Z,25.89
2023-04-30T08:57:37.410Z,24.91
2023-04-30T09:00:06.757Z,25.96
2023-04-30T09:02:34.728Z,29.91
2023-04-30T09:05:01.808Z,29.06
2023-04-30T09:07:33.687Z,27.44
2023-04-30T09:10:00.831Z,26.82
2023-04-30T09:12:27.835Z,26.00
2023-04-30T09:15:08.456Z,25.66
2023-04-30T09:17:35.342Z,24.76
2023-04-30T09:20:12.907Z,24.03
2023-04-30T09:22:41.582Z,23.59
2023-04-30T09:25:09.790Z,25.20
2023-04-30T09:27:36.581Z,29.05
2023-04-30T09:30:04.714Z,28.88
2023-04-30T09:32:31.717Z,27.64
2023-04-30T09:34:58.582Z,26.31
2023-04-30T09:37:36.476Z,25.70
2023-04-30T09:40:04.605Z,25.01
2023-04-30T09:42:31.435Z,25.13
2023-04-30T09:44:58.430Z,28.53
2023-04-30T09:47:31.154Z,31.60
2023-04-30T09:50:00.664Z,31.28
2023-04-30T09:52:27.393Z,29.80
2023-04-30T09:54:54.147Z,29.68
2023-04-30T09:57:24.348Z,29.01
2023-04-30T09:59:53.463Z,27.84
2023-04-30T10:02:23.484Z,27.41
2023-04-30T10:04:56.273Z,28.11
2023-04-30T10:07:26.323Z,27.53
2023-04-30T10:10:03.389Z,26.91
2023-04-30T10:12:40.729Z,26.13
2023-04-30T10:15:17.742Z,25.39
2023-04-30T10:17:50.631Z,24.86
2023-04-30T10:20:18.419Z,24.62
2023-04-30T10:22:47.461Z,25.61
2023-04-30T10:25:14.724Z,26.46
2023-04-30T10:27:42.661Z,26.39
2023-04-30T10:30:11.670Z,26.00
2023-04-30T10:33:00.470Z,25.22
2023-04-30T10:35:30.814Z,24.64
2023-04-30T10:38:13.066Z,24.28
2023-04-30T10:40:39.889Z,24.20
2023-04-30T10:43:06.894Z,24.56
2023-04-30T10:45:38.945Z,24.88
2023-04-30T10:48:07.210Z,25.42
2023-04-30T10:50:42.994Z,25.75
2023-04-30T10:53:18.292Z,25.90
2023-04-30T10:55:53.151Z,28.39
2023-04-30T10:58:28.008Z,28.38
2023-04-30T11:01:11.091Z,26.91
2023-04-30T11:03:40.394Z,25.82
2023-04-30T11:06:20.113Z,24.87
2023-04-30T11:08:47.282Z,24.26
2023-04-30T11:11:24.038Z,24.02
2023-04-30T11:14:01.708Z,23.79
2023-04-30T11:16:35.184Z,23.49
2023-04-30T11:19:13.435Z,23.20
2023-04-30T11:22:03.405Z,23.58
2023-04-30T11:25:05.140Z,24.03
2023-04-30T11:27:34.342Z,24.36
2023-04-30T11:30:03.265Z,24.64
2023-04-30T11:32:35.462Z,24.89
2023-04-30T11:35:06.586Z,25.35
2023-04-30T11:37:35.386Z,25.91
2023-04-30T11:40:11.301Z,27.35
2023-04-30T11:42:40.640Z,29.58
2023-04-30T11:45:12.216Z,29.59
2023-04-30T11:47:40.445Z,28.51
2023-04-30T11:50:09.213Z,27.60
2023-04-30T11:52:36.734Z,26.80
2023-04-30T11:55:21.629Z,26.20
2023-04-30T11:57:50.971Z,25.80
2023-04-30T12:00:20.536Z,25.78
2023-04-30T12:02:48.710Z,26.54
2023-04-30T12:05:26.897Z,27.20
2023-04-30T12:07:57.733Z,30.75
2023-04-30T12:10:26.948Z,33.50
2023-04-30T12:12:59.240Z,33.47
2023-04-30T12:15:27.744Z,31.89
2023-04-30T12:17:58.681Z,29.17
2023-04-30T12:20:28.589Z,27.46
2023-04-30T12:22:56.109Z,26.26
2023-04-30T12:25:23.623Z,25.43
2023-04-30T12:27:54.233Z,24.77
2023-04-30T12:30:23.058Z,24.82
2023-04-30T12:32:52.556Z,25.22
2023-04-30T12:35:21.150Z,25.19
2023-04-30T12:37:52.900Z,24.49
2023-04-30T12:40:27.427Z,24.12
2023-04-30T12:43:05.646Z,24.05
2023-04-30T12:45:54.649Z,23.98
2023-04-30T12:48:23.486Z,23.75
2023-04-30T12:51:00.207Z,23.70
2023-04-30T12:53:28.349Z,23.80
2023-04-30T12:56:17.462Z,23.61
2023-04-30T12:58:47.380Z,23.92
2023-04-30T13:01:20.614Z,23.94
2023-04-30T13:03:48.206Z,23.83
2023-04-30T13:06:15.396Z,23.52
2023-04-30T13:08:57.273Z,23.42
2023-04-30T13:11:26.448Z,23.32
2023-04-30T13:13:55.870Z,23.05
2023-04-30T13:16:24.418Z,23.07
2023-04-30T13:18:51.595Z,23.29
2023-04-30T13:21:18.648Z,23.55
2023-04-30T13:23:52.795Z,23.66
2023-04-30T13:26:21.501Z,23.98
2023-04-30T13:28:48.163Z,24.17
2023-04-30T13:31:15.055Z,24.44
2023-04-30T13:33:42.235Z,24.24
2023-04-30T13:36:08.885Z,24.11
2023-04-30T13:38:35.597Z,24.37
2023-04-30T13:41:02.318Z,24.56
2023-04-30T13:43:29.279Z,24.32
2023-04-30T13:45:56.071Z,24.02
2023-04-30T13:48:23.069Z,23.81
2023-04-30T13:50:49.867Z,23.60
2023-04-30T13:53:16.752Z,23.45
2023-04-30T13:55:43.491Z,23.18
2023-04-30T13:58:10.235Z,23.03
2023-04-30T14:00:37.175Z,23.05
2023-04-30T14:03:05.754Z,23.10
2023-04-30T14:05:34.729Z,23.19
2023-04-30T14:08:01.425Z,23.13
2023-04-30T14:10:28.022Z,23.09
2023-04-30T14:12:54.891Z,23.12
2023-04-30T14:15:22.237Z,23.18
2023-04-30T14:17:48.897Z,23.22
2023-04-30T14:20:16.315Z,23.21
2023-04-30T14:22:43.397Z,23.25
2023-04-30T14:25:10.474Z,23.32
2023-04-30T14:27:37.538Z,23.19
2023-04-30T14:30:05.075Z,23.33
2023-04-30T14:32:31.991Z,23.61
2023-04-30T14:34:58.854Z,23.73
2023-04-30T14:37:25.667Z,23.77
2023-04-30T14:39:52.762Z,23.71
2023-04-30T14:42:19.941Z,23.60
2023-04-30T14:44:46.707Z,23.30
2023-04-30T14:47:13.643Z,22.94
2023-04-30T14:49:40.833Z,22.63
2023-04-30T14:52:07.501Z,22.63
2023-04-30T14:54:34.565Z,22.76
2023-04-30T14:57:03.407Z,22.59
2023-04-30T14:59:30.347Z,22.44
2023-04-30T15:01:57.191Z,22.52
2023-04-30T15:04:23.961Z,22.87
2023-04-30T15:06:50.920Z,23.40
2023-04-30T15:09:17.873Z,23.94
2023-04-30T15:11:44.576Z,24.19
2023-04-30T15:14:11.734Z,24.03
2023-04-30T15:16:38.457Z,23.62
2023-04-30T15:19:05.221Z,23.18
2023-04-30T15:21:31.821Z,22.92
2023-04-30T15:23:58.513Z,22.76
2023-04-30T15:26:25.964Z,22.59
2023-04-30T15:28:52.703Z,22.48
2023-04-30T15:31:19.693Z,22.36
2023-04-30T15:33:46.336Z,22.24
2023-04-30T15:36:13.050Z,22.18
2023-04-30T15:38:39.700Z,22.19
2023-04-30T15:41:06.364Z,22.22
2023-04-30T15:43:33.075Z,22.18
2023-04-30T15:45:59.892Z,22.23
2023-04-30T15:48:26.781Z,22.18
2023-04-30T15:50:53.425Z,22.16
2023-04-30T15:53:20.097Z,22.25
2023-04-30T15:55:48.548Z,22.17
2023-04-30T15:58:16.181Z,22.12
2023-04-30T16:00:43.215Z,22.09
2023-04-30T16:03:09.962Z,22.03
2023-04-30T16:05:40.384Z,21.98
2023-04-30T16:08:10.699Z,21.82
2023-04-30T16:10:38.844Z,21.75
2023-04-30T16:13:05.780Z,21.74
2023-04-30T16:15:32.712Z,21.75
2023-04-30T16:17:59.715Z,21.67
2023-04-30T16:20:27.379Z,21.63
2023-04-30T16:22:54.715Z,21.63
2023-04-30T16:25:22.580Z,21.61
2023-04-30T16:27:49.815Z,21.52
2023-04-30T16:30:16.616Z,21.40
2023-04-30T16:32:44.292Z,21.40
2023-04-30T16:35:11.075Z,21.42
2023-04-30T16:37:37.709Z,21.36
2023-04-30T16:40:06.356Z,21.29
2023-04-30T16:42:33.935Z,21.28
2023-04-30T16:45:00.700Z,21.28
2023-04-30T16:47:27.509Z,21.28
2023-04-30T16:49:55.650Z,21.24
2023-04-30T16:52:22.510Z,21.21
2023-04-30T16:54:49.182Z,21.19
2023-04-30T16:57:16.077Z,21.18
2023-04-30T16:59:42.754Z,21.18
2023-04-30T17:02:09.908Z,21.19
2023-04-30T17:04:36.627Z,21.17
2023-04-30T17:07:03.836Z,21.12
2023-04-30T17:09:30.536Z,21.01
2023-04-30T17:11:58.424Z,20.97
2023-04-30T17:14:25.137Z,20.95
2023-04-30T17:16:51.716Z,20.95
2023-04-30T17:19:18.348Z,20.86
2023-04-30T17:21:45.020Z,20.78
2023-04-30T17:24:11.890Z,20.74
2023-04-30T17:26:38.646Z,20.65
2023-04-30T17:29:06.338Z,20.56
2023-04-30T17:31:33.609Z,20.49
2023-04-30T17:34:00.425Z,20.45
2023-04-30T17:36:30.425Z,20.38
2023-04-30T17:38:57.047Z,20.32
2023-04-30T17:41:24.281Z,20.26
2023-04-30T17:43:51.905Z,20.22
2023-04-30T17:46:19.225Z,20.19
2023-04-30T17:48:46.147Z,20.15
2023-04-30T17:51:13.259Z,20.11
2023-04-30T17:53:40.741Z,20.04
2023-04-30T17:56:08.865Z,20.01
2023-04-30T17:58:37.091Z,19.96
2023-04-30T18:01:05.493Z,19.91
2023-04-30T18:03:32.584Z,19.87
2023-04-30T18:05:59.470Z,19.81
2023-04-30T18:08:26.353Z,19.76
2023-04-30T18:10:53.250Z,19.70
2023-04-30T18:13:19.876Z,19.64
2023-04-30T18:15:46.940Z,19.60
2023-04-30T18:18:14.138Z,19.53
2023-04-30T18:20:40.886Z,19.46
2023-04-30T18:23:09.942Z,19.39
2023-04-30T18:25:37.267Z,19.34
2023-04-30T18:28:03.993Z,19.30
2023-04-30T18:30:31.638Z,19.24
2023-04-30T18:32:58.323Z,19.19
2023-04-30T18:35:25.046Z,19.15
2023-04-30T18:37:51.803Z,19.12
2023-04-30T18:40:19.155Z,19.06
2023-04-30T18:42:46.654Z,19.03
2023-04-30T18:45:15.403Z,18.98
2023-04-30T18:47:42.183Z,18.93
2023-04-30T18:50:13.344Z,18.88
2023-04-30T18:52:40.771Z,18.84
2023-04-30T18:55:08.814Z,18.81
2023-04-30T18:57:35.531Z,18.78
2023-04-30T19:00:02.453Z,18.74
2023-04-30T19:02:29.316Z,18.70
2023-04-30T19:04:56.244Z,18.66
2023-04-30T19:07:22.937Z,18.63
2023-04-30T19:09:51.824Z,18.59
2023-04-30T19:12:18.550Z,18.54
2023-04-30T19:14:45.837Z,18.49
2023-04-30T19:17:12.901Z,18.44
2023-04-30T19:19:39.983Z,18.41
2023-04-30T19:22:07.067Z,18.37
2023-04-30T19:24:33.869Z,18.36
2023-04-30T19:27:04.335Z,18.32
2023-04-30T19:29:31.681Z,18.26
2023-04-30T19:31:59.192Z,18.23
2023-04-30T19:34:28.981Z,18.20
2023-04-30T19:36:55.576Z,18.16
2023-04-30T19:39:22.363Z,18.12
2023-04-30T19:41:49.849Z,18.13
2023-04-30T19:44:17.793Z,18.14
2023-04-30T19:46:44.747Z,18.15
2023-04-30T19:49:11.494Z,18.16
2023-04-30T19:51:38.401Z,18.12
2023-04-30T19:54:05.544Z,18.08
2023-04-30T19:56:32.752Z,18.09
2023-04-30T19:58:59.401Z,18.12
2023-04-30T20:01:26.122Z,18.15
2023-04-30T20:03:53.106Z,18.17
2023-04-30T20:06:21.054Z,18.17
2023-04-30T20:08:48.290Z,18.20
2023-04-30T20:11:15.106Z,18.22
2023-04-30T20:13:41.753Z,18.22
2023-04-30T20:16:12.401Z,18.20
2023-04-30T20:18:39.385Z,18.15
2023-04-30T20:21:06.712Z,18.10
2023-04-30T20:23:34.291Z,18.03
2023-04-30T20:26:02.005Z,17.95
2023-04-30T20:28:28.800Z,17.89
2023-04-30T20:30:55.849Z,17.82
2023-04-30T20:33:22.630Z,17.73
2023-04-30T20:35:49.682Z,17.68
2023-04-30T20:38:19.665Z,17.61
2023-04-30T20:40:47.145Z,17.56
2023-04-30T20:43:14.115Z,17.51
2023-04-30T20:45:42.728Z,17.46
2023-04-30T20:48:09.636Z,17.40
2023-04-30T20:50:37.326Z,17.36
2023-04-30T20:53:04.272Z,17.32
2023-04-30T20:55:31.259Z,17.29
2023-04-30T20:57:58.068Z,17.28
2023-04-30T21:00:24.774Z,17.25
2023-04-30T21:02:53.949Z,17.24
2023-04-30T21:05:20.821Z,17.22
2023-04-30T21:07:47.529Z,17.20
2023-04-30T21:10:14.377Z,17.19
2023-04-30T21:12:41.230Z,17.20
2023-04-30T21:15:09.275Z,17.19
2023-04-30T21:17:36.232Z,17.23
2023-04-30T21:20:04.137Z,17.27
2023-04-30T21:22:31.827Z,17.32
2023-04-30T21:24:58.563Z,17.35
2023-04-30T21:27:25.242Z,17.32
2023-04-30T21:29:51.953Z,17.23
2023-04-30T21:32:18.700Z,17.17
2023-04-30T21:34:45.498Z,17.13
2023-04-30T21:37:12.222Z,17.07
2023-04-30T21:39:39.013Z,17.06
2023-04-30T21:42:05.742Z,17.05
2023-04-30T21:44:33.097Z,17.04
2023-04-30T21:47:00.058Z,16.97
2023-04-30T21:49:27.011Z,16.90
2023-04-30T21:51:53.937Z,16.86
2023-04-30T21:54:20.817Z,16.84
2023-04-30T21:56:47.516Z,16.83
2023-04-30T21:59:14.196Z,16.81
2023-04-30T22:01:40.921Z,16.74
2023-04-30T22:04:07.880Z,16.68
2023-04-30T22:06:34.783Z,16.62
2023-04-30T22:09:01.873Z,16.57
2023-04-30T22:11:29.223Z,16.57
2023-04-30T22:13:55.904Z,16.56
2023-04-30T22:16:22.931Z,16.55
2023-04-30T22:18:49.602Z,16.52
2023-04-30T22:21:16.296Z,16.44
2023-04-30T22:23:42.854Z,16.40
2023-04-30T22:26:11.272Z,16.38
2023-04-30T22:28:38.308Z,16.29
2023-04-30T22:31:05.510Z,16.21
2023-04-30T22:33:36.522Z,16.14
2023-04-30T22:36:06.534Z,16.09
2023-04-30T22:38:33.499Z,16.09
2023-04-30T22:41:00.693Z,16.09
2023-04-30T22:43:30.241Z,16.08
2023-04-30T22:45:58.435Z,16.12
2023-04-30T22:48:27.664Z,16.13
2023-04-30T22:50:55.479Z,16.13
2023-04-30T22:53:22.427Z,16.12
2023-04-30T22:55:49.678Z,16.06
2023-04-30T22:58:17.155Z,15.95
2023-04-30T23:00:43.802Z,15.88
2023-04-30T23:03:11.969Z,15.81
2023-04-30T23:05:38.874Z,15.73
2023-04-30T23:08:05.530Z,15.71
2023-04-30T23:10:32.278Z,15.70
2023-04-30T23:12:59.076Z,15.68
2023-04-30T23:15:26.391Z,15.67
2023-04-30T23:17:54.567Z,15.69
2023-04-30T23:20:22.629Z,15.66
2023-04-30T23:22:50.145Z,15.61
2023-04-30T23:25:17.130Z,15.61
2023-04-30T23:27:45.181Z,15.55
2023-04-30T23:30:12.310Z,15.51
2023-04-30T23:32:39.239Z,15.47
2023-04-30T23:35:07.943Z,15.40
2023-04-30T23:37:35.283Z,15.36
2023-04-30T23:40:02.283Z,15.31
2023-04-30T23:42:28.978Z,15.29
2023-04-30T23:44:55.775Z,15.27
2023-04-30T23:47:23.077Z,15.25
2023-04-30T23:49:49.792Z,15.21
2023-04-30T23:52:16.432Z,15.14
2023-04-30T23:54:44.432Z,15.10
2023-04-30T23:57:11.365Z,15.06
2023-04-30T23:59:38.117Z,15.01
